Time;durP1;ratioP1;P1;durP2;ratioP2;P2;SDS_P1;SDS_P2;PMS_P1;PMS_P2;Temp;Humidity;BMP_temperature;BMP_pressure;BME280_temperature;BME280_humidity;BME280_pressure;Samples;Min_cycle;Max_cycle;Signal;HPM_P1;HPM_P2
2021/09/30 00:00:46;;;;;;;4.30;1.00;;;11.20;99.90;;;;;;5072402;28;20079;-81
2021/09/30 00:03:13;;;;;;;1.88;0.75;;;11.10;99.90;;;;;;5072749;28;20049;-82
2021/09/30 00:05:42;;;;;;;2.85;0.90;;;11.00;99.90;;;;;;5072773;28;20083;-81
2021/09/30 00:08:11;;;;;;;3.58;1.10;;;11.00;99.90;;;;;;5072517;28;20079;-81
2021/09/30 00:10:40;;;;;;;1.98;0.70;;;10.90;99.90;;;;;;5072395;28;20135;-80
2021/09/30 00:13:20;;;;;;;2.42;0.75;;;10.90;99.90;;;;;;5072584;28;20048;-81
2021/09/30 00:16:05;;;;;;;3.35;0.93;;;10.90;99.90;;;;;;5074455;28;20083;-80
2021/09/30 00:32:39;;;;;;;4.05;0.82;;;10.60;99.90;;;;;;5075793;28;20047;-80
2021/09/30 00:35:21;;;;;;;2.85;0.85;;;10.60;99.90;;;;;;5076021;28;20106;-79
2021/09/30 00:40:40;;;;;;;2.70;0.80;;;10.60;99.90;;;;;;5074003;28;20056;-81
2021/09/30 00:46:04;;;;;;;3.53;1.10;;;10.50;99.90;;;;;;5019516;28;20037;-81
2021/09/30 00:48:47;;;;;;;3.53;0.90;;;10.50;99.90;;;;;;5055573;28;20059;-80
2021/09/30 00:51:22;;;;;;;2.60;0.77;;;10.50;99.90;;;;;;5055498;28;20099;-80
2021/09/30 00:54:13;;;;;;;;;;;10.50;99.90;;;;;;5056042;28;20400;-79
2021/09/30 01:40:12;;;;;;;3.88;0.98;;;10.20;99.90;;;;;;5054729;28;20159;-80
2021/09/30 02:19:29;;;;;;;2.03;0.80;;;9.90;99.90;;;;;;5111112;28;20094;-81
2021/09/30 02:22:14;;;;;;;3.55;0.80;;;9.90;99.90;;;;;;5110776;28;20107;-81
2021/09/30 02:39:15;;;;;;;2.92;0.80;;;9.80;99.90;;;;;;5110171;28;20554;-81
2021/09/30 02:58:32;;;;;;;3.35;0.77;;;9.70;99.90;;;;;;5102535;28;20555;-82
2021/09/30 03:01:05;;;;;;;3.30;0.80;;;9.70;99.90;;;;;;5095010;28;20499;-80
2021/09/30 03:03:36;;;;;;;3.95;0.90;;;9.70;99.90;;;;;;5094492;28;20123;-80
2021/09/30 03:06:06;;;;;;;1.83;0.70;;;9.70;99.90;;;;;;5093553;28;20044;-82
2021/09/30 03:08:37;;;;;;;3.58;0.70;;;9.70;99.90;;;;;;5094241;28;20044;-83
2021/09/30 03:11:06;;;;;;;2.85;0.82;;;9.60;99.90;;;;;;5093962;28;20093;-82
2021/09/30 03:13:35;;;;;;;4.57;0.93;;;9.60;99.90;;;;;;5093678;28;20270;-82
2021/09/30 03:16:07;;;;;;;3.25;0.88;;;9.60;99.90;;;;;;5093912;28;20048;-80
2021/09/30 03:18:50;;;;;;;5.70;1.02;;;9.60;99.90;;;;;;5093809;27;20076;-80
2021/09/30 03:24:05;;;;;;;2.45;0.75;;;9.60;99.90;;;;;;5093444;28;20055;-81
2021/09/30 03:26:35;;;;;;;2.63;0.70;;;9.60;99.90;;;;;;5092420;28;20048;-82
2021/09/30 03:29:03;;;;;;;3.00;0.80;;;9.60;99.90;;;;;;5093477;28;20126;-82
2021/09/30 03:31:32;;;;;;;2.78;0.73;;;9.60;99.90;;;;;;5093511;27;20113;-81
2021/09/30 03:34:00;;;;;;;3.05;0.90;;;9.50;99.90;;;;;;5093248;28;20088;-80
2021/09/30 03:36:28;;;;;;;2.35;0.80;;;9.50;99.90;;;;;;5093562;28;20699;-80
2021/09/30 03:38:56;;;;;;;4.15;0.90;;;9.50;99.90;;;;;;5058736;28;20383;-82
2021/09/30 03:41:23;;;;;;;2.95;0.73;;;9.50;99.90;;;;;;5093245;28;20072;-80
2021/09/30 03:43:52;;;;;;;2.20;0.65;;;9.60;99.90;;;;;;5093635;28;20123;-83
2021/09/30 03:46:19;;;;;;;2.42;0.77;;;9.60;99.90;;;;;;5093753;28;20155;-81
2021/09/30 03:48:53;;;;;;;2.60;0.93;;;9.60;99.90;;;;;;5105477;28;20494;-85
2021/09/30 03:51:29;;;;;;;3.60;0.80;;;9.60;99.90;;;;;;5092872;28;20047;-84
2021/09/30 03:54:01;;;;;;;4.53;0.85;;;9.60;99.90;;;;;;5093910;28;20105;-84
2021/09/30 03:56:37;;;;;;;2.80;0.80;;;9.60;99.90;;;;;;5093944;28;20051;-84
2021/09/30 03:59:09;;;;;;;3.25;0.70;;;9.70;99.90;;;;;;5094160;28;20504;-84
2021/09/30 04:01:36;;;;;;;2.00;0.73;;;9.70;99.90;;;;;;5094841;28;20305;-85
2021/09/30 04:04:04;;;;;;;3.75;0.85;;;9.70;99.90;;;;;;5095434;28;20127;-84
2021/09/30 04:06:33;;;;;;;3.17;0.82;;;9.70;99.90;;;;;;5095530;28;20127;-83
2021/09/30 04:09:00;;;;;;;2.85;0.70;;;9.60;99.90;;;;;;5095238;28;20408;-84
2021/09/30 04:11:27;;;;;;;2.78;0.80;;;9.60;99.90;;;;;;5094021;28;20564;-78
2021/09/30 04:13:55;;;;;;;4.20;1.05;;;9.50;99.90;;;;;;5094787;28;20087;-79
2021/09/30 04:16:26;;;;;;;2.42;0.88;;;9.50;99.90;;;;;;5095015;28;20126;-81
2021/09/30 04:18:53;;;;;;;3.83;1.10;;;9.50;99.90;;;;;;5094828;28;20527;-82
2021/09/30 04:21:21;;;;;;;4.07;0.95;;;9.50;99.90;;;;;;5094735;28;20131;-82
2021/09/30 04:23:48;;;;;;;3.55;0.82;;;9.50;99.90;;;;;;5094589;28;20139;-82
2021/09/30 04:26:15;;;;;;;2.10;0.60;;;9.50;99.90;;;;;;5094728;28;20123;-81
2021/09/30 04:28:42;;;;;;;4.18;0.90;;;9.50;99.90;;;;;;5094577;28;20155;-83
2021/09/30 04:31:09;;;;;;;2.55;0.70;;;9.50;99.90;;;;;;5094151;28;20225;-81
2021/09/30 04:33:38;;;;;;;2.15;0.73;;;9.50;99.90;;;;;;5093818;28;20131;-82
2021/09/30 04:36:05;;;;;;;3.28;0.88;;;9.50;99.90;;;;;;5093734;28;20139;-82
2021/09/30 04:38:32;;;;;;;2.20;0.75;;;9.50;99.90;;;;;;5094197;28;20079;-82
2021/09/30 04:40:59;;;;;;;2.65;0.90;;;9.50;99.90;;;;;;5094451;28;20051;-82
2021/09/30 04:43:26;;;;;;;3.17;0.90;;;9.50;99.90;;;;;;5094344;28;20134;-82
2021/09/30 04:45:53;;;;;;;3.00;1.00;;;9.50;99.90;;;;;;5094209;28;20079;-82
2021/09/30 04:48:21;;;;;;;2.58;0.88;;;9.50;99.90;;;;;;5093982;28;20138;-82
2021/09/30 04:50:49;;;;;;;2.30;0.80;;;9.50;99.90;;;;;;5094504;28;20139;-81
2021/09/30 04:53:16;;;;;;;3.90;0.77;;;9.50;99.90;;;;;;5094189;28;20112;-81
2021/09/30 04:55:43;;;;;;;5.32;1.20;;;9.50;99.90;;;;;;5093719;28;20040;-82
2021/09/30 04:58:10;;;;;;;2.30;0.80;;;9.40;99.90;;;;;;5094428;28;20217;-81
2021/09/30 05:00:37;;;;;;;4.50;1.00;;;9.40;99.90;;;;;;5094217;28;20131;-83
2021/09/30 05:03:04;;;;;;;3.47;0.80;;;9.30;99.90;;;;;;5093957;28;20131;-83
2021/09/30 05:05:32;;;;;;;2.67;0.80;;;9.30;99.90;;;;;;5093843;28;20075;-83
2021/09/30 05:08:00;;;;;;;2.15;0.80;;;9.30;99.90;;;;;;5093701;28;20134;-82
2021/09/30 05:10:32;;;;;;;3.55;0.90;;;9.30;99.90;;;;;;5093481;28;20071;-82
2021/09/30 05:13:04;;;;;;;3.53;1.10;;;9.30;99.90;;;;;;5093539;28;20426;-82
2021/09/30 05:15:32;;;;;;;2.45;0.82;;;9.30;99.90;;;;;;5093916;28;20059;-84
2021/09/30 05:17:59;;;;;;;1.83;0.77;;;9.30;99.90;;;;;;5093701;28;20051;-80
2021/09/30 05:20:27;;;;;;;3.15;0.80;;;9.30;99.90;;;;;;5093807;28;20097;-81
2021/09/30 05:22:54;;;;;;;3.00;0.73;;;9.20;99.90;;;;;;5093407;28;20139;-82
2021/09/30 05:25:24;;;;;;;3.97;1.00;;;9.20;99.90;;;;;;5093913;28;20131;-81
2021/09/30 05:27:52;;;;;;;3.20;0.90;;;9.20;99.90;;;;;;5093592;28;20083;-83
2021/09/30 05:30:20;;;;;;;5.22;1.20;;;9.20;99.90;;;;;;5093662;28;20044;-83
2021/09/30 05:32:47;;;;;;;5.00;1.05;;;9.20;99.90;;;;;;5092436;28;20131;-83
2021/09/30 05:35:15;;;;;;;3.17;1.02;;;9.10;99.90;;;;;;5093455;28;20054;-81
2021/09/30 05:37:44;;;;;;;3.08;1.13;;;9.20;99.90;;;;;;5093517;28;20551;-82
2021/09/30 05:40:15;;;;;;;2.85;1.00;;;9.10;99.90;;;;;;5093487;28;20067;-82
2021/09/30 05:42:44;;;;;;;4.22;1.20;;;9.10;99.90;;;;;;5093626;28;20052;-81
2021/09/30 05:45:15;;;;;;;4.95;1.10;;;9.10;99.90;;;;;;5093366;28;20147;-82
2021/09/30 05:47:43;;;;;;;3.92;1.13;;;9.10;99.90;;;;;;5092952;28;20060;-83
2021/09/30 05:50:11;;;;;;;3.20;1.00;;;9.10;99.90;;;;;;5093480;28;20401;-81
2021/09/30 05:52:38;;;;;;;3.70;1.23;;;9.10;99.90;;;;;;5093204;28;20140;-82
2021/09/30 05:55:08;;;;;;;2.63;0.80;;;9.10;99.90;;;;;;5092249;28;20087;-80
2021/09/30 05:57:35;;;;;;;3.97;1.27;;;9.10;99.90;;;;;;5093118;28;20131;-81
2021/09/30 06:00:12;;;;;;;4.57;1.20;;;9.20;99.90;;;;;;5093107;28;20091;-81
2021/09/30 06:11:03;;;;;;;3.45;1.17;;;9.30;99.90;;;;;;5083763;28;20126;-79
2021/09/30 06:13:33;;;;;;;3.55;1.20;;;9.30;99.90;;;;;;5092896;28;20040;-79
2021/09/30 06:16:06;;;;;;;2.60;1.05;;;9.30;99.90;;;;;;5092993;28;20052;-80
2021/09/30 06:18:34;;;;;;;3.15;1.20;;;9.30;99.90;;;;;;5092806;28;20048;-79
2021/09/30 06:21:01;;;;;;;2.95;1.17;;;9.40;99.90;;;;;;5092275;28;20056;-80
2021/09/30 06:23:28;;;;;;;4.90;1.38;;;9.50;99.90;;;;;;5089587;28;20139;-79
2021/09/30 06:25:55;;;;;;;4.45;1.27;;;9.50;99.90;;;;;;5090018;28;20138;-80
2021/09/30 06:28:22;;;;;;;4.68;1.05;;;9.50;99.90;;;;;;5089120;28;20084;-79
2021/09/30 06:30:49;;;;;;;3.65;1.20;;;9.60;99.90;;;;;;5089827;28;20046;-79
2021/09/30 06:33:18;;;;;;;3.53;1.30;;;9.60;99.90;;;;;;5090639;28;20142;-80
2021/09/30 06:35:45;;;;;;;4.03;1.30;;;9.60;99.90;;;;;;5093518;28;20457;-79
2021/09/30 06:38:12;;;;;;;3.42;1.05;;;9.60;99.90;;;;;;5093865;28;20449;-80
2021/09/30 06:40:39;;;;;;;3.47;1.20;;;9.70;99.90;;;;;;5091925;28;20070;-79
2021/09/30 06:43:06;;;;;;;7.07;1.75;;;9.70;99.90;;;;;;5093747;28;20564;-80
2021/09/30 06:45:34;;;;;;;3.42;1.40;;;9.70;99.90;;;;;;5094167;28;20054;-78
2021/09/30 06:48:01;;;;;;;2.83;1.15;;;9.60;99.90;;;;;;5093668;28;20054;-77
2021/09/30 06:50:29;;;;;;;3.47;1.40;;;9.60;99.90;;;;;;5095917;28;20138;-81
2021/09/30 06:52:56;;;;;;;4.05;1.23;;;9.60;99.90;;;;;;5093400;28;20079;-80
2021/09/30 06:55:24;;;;;;;4.00;1.30;;;9.60;99.90;;;;;;5093078;28;20048;-80
2021/09/30 06:57:51;;;;;;;3.50;1.27;;;9.60;99.90;;;;;;5093264;28;20054;-80
2021/09/30 07:00:21;;;;;;;4.30;1.40;;;9.60;99.90;;;;;;5093513;28;20139;-80
2021/09/30 07:02:48;;;;;;;4.07;1.55;;;9.70;99.90;;;;;;5093078;28;20090;-78
2021/09/30 07:05:16;;;;;;;3.90;1.38;;;9.70;99.90;;;;;;5093449;28;20048;-80
2021/09/30 07:07:45;;;;;;;2.92;1.23;;;9.70;99.90;;;;;;5092505;28;20047;-77
2021/09/30 07:10:12;;;;;;;3.25;1.27;;;9.80;99.90;;;;;;5093115;28;20139;-80
2021/09/30 07:12:41;;;;;;;3.92;1.50;;;9.80;99.90;;;;;;5092961;28;20127;-81
2021/09/30 07:15:09;;;;;;;3.53;1.27;;;9.80;99.90;;;;;;5093006;28;20476;-77
2021/09/30 07:17:36;;;;;;;5.07;1.40;;;9.80;99.90;;;;;;5093152;28;20143;-77
2021/09/30 07:20:05;;;;;;;4.53;1.73;;;9.90;99.90;;;;;;5092457;28;20155;-80
2021/09/30 07:22:32;;;;;;;4.18;1.25;;;9.90;99.90;;;;;;5093112;28;20074;-80
2021/09/30 07:25:01;;;;;;;4.05;1.38;;;10.00;99.90;;;;;;5092941;28;20083;-81
2021/09/30 07:27:28;;;;;;;2.88;1.10;;;10.10;99.90;;;;;;5092387;28;20130;-79
2021/09/30 07:29:55;;;;;;;4.22;1.40;;;10.20;99.90;;;;;;5092789;28;20134;-80
2021/09/30 07:32:24;;;;;;;5.22;1.40;;;10.30;99.90;;;;;;5092377;28;20135;-81
2021/09/30 07:34:51;;;;;;;5.05;1.40;;;10.40;99.90;;;;;;5092641;28;20117;-79
2021/09/30 07:37:19;;;;;;;2.13;0.90;;;10.40;99.90;;;;;;5093053;28;20092;-81
2021/09/30 07:39:46;;;;;;;3.85;1.20;;;10.50;99.90;;;;;;5092460;28;20097;-79
2021/09/30 07:42:15;;;;;;;6.38;1.20;;;10.60;99.90;;;;;;5092452;28;20083;-81
2021/09/30 07:44:42;;;;;;;3.65;1.00;;;10.70;99.90;;;;;;5092711;28;20090;-79
2021/09/30 07:47:10;;;;;;;3.90;1.20;;;10.70;99.90;;;;;;5091392;28;20060;-81
2021/09/30 07:49:37;;;;;;;4.60;1.10;;;10.70;99.90;;;;;;5092317;28;20055;-80
2021/09/30 07:52:05;;;;;;;3.15;1.20;;;10.80;99.90;;;;;;5092332;28;20083;-81
2021/09/30 07:54:32;;;;;;;3.60;1.20;;;10.90;99.90;;;;;;5092114;28;20128;-79
2021/09/30 07:56:59;;;;;;;5.28;1.52;;;10.90;99.90;;;;;;5091904;28;20142;-75
2021/09/30 07:59:28;;;;;;;5.75;1.52;;;10.90;99.90;;;;;;5091634;28;20048;-79
2021/09/30 08:01:55;;;;;;;5.15;1.30;;;11.00;99.90;;;;;;5091928;28;20055;-77
2021/09/30 08:04:22;;;;;;;5.20;1.30;;;11.10;99.90;;;;;;5092126;28;20048;-79
2021/09/30 08:06:49;;;;;;;3.22;1.08;;;11.20;99.90;;;;;;5091744;28;20052;-77
2021/09/30 08:09:19;;;;;;;6.13;1.88;;;11.20;99.80;;;;;;5091795;28;20507;-78
2021/09/30 08:11:46;;;;;;;3.92;1.08;;;11.30;99.50;;;;;;5091439;28;20485;-77
2021/09/30 08:14:14;;;;;;;4.18;1.15;;;11.40;99.40;;;;;;5091542;28;20496;-77
2021/09/30 08:16:42;;;;;;;4.45;1.10;;;11.40;99.40;;;;;;5091807;28;20079;-78
2021/09/30 08:19:10;;;;;;;4.20;1.00;;;11.50;99.10;;;;;;5091140;28;20046;-77
2021/09/30 08:21:44;;;;;;;3.58;1.30;;;11.60;99.20;;;;;;5091696;28;20456;-79
2021/09/30 08:24:11;;;;;;;3.08;0.98;;;11.70;98.60;;;;;;5091455;28;20051;-77
2021/09/30 08:26:39;;;;;;;3.83;0.90;;;11.70;98.50;;;;;;5091032;28;20109;-78
2021/09/30 08:29:06;;;;;;;4.78;1.00;;;11.80;98.40;;;;;;5091697;28;20044;-79
2021/09/30 08:31:34;;;;;;;3.60;1.00;;;11.90;98.50;;;;;;5091212;28;20052;-77
2021/09/30 08:34:03;;;;;;;4.88;1.50;;;12.00;98.00;;;;;;5094296;28;20052;-76
2021/09/30 08:36:31;;;;;;;3.97;1.10;;;12.00;97.50;;;;;;5090784;28;20491;-80
2021/09/30 08:39:00;;;;;;;3.78;1.00;;;12.10;97.10;;;;;;5090686;28;20139;-79
2021/09/30 08:41:27;;;;;;;3.78;1.27;;;12.20;97.30;;;;;;5091315;28;20417;-77
2021/09/30 08:43:54;;;;;;;3.78;0.90;;;12.20;96.80;;;;;;5091061;28;20048;-79
2021/09/30 08:46:22;;;;;;;3.78;0.90;;;12.30;96.40;;;;;;5091016;28;20060;-76
2021/09/30 08:48:49;;;;;;;2.80;0.70;;;12.30;95.90;;;;;;5090661;28;20059;-79
2021/09/30 08:51:19;;;;;;;3.08;0.80;;;12.40;95.00;;;;;;5090411;28;20044;-80
2021/09/30 08:53:47;;;;;;;4.18;0.60;;;12.40;95.00;;;;;;5091189;28;20059;-80
2021/09/30 08:56:14;;;;;;;3.55;0.90;;;12.40;94.70;;;;;;5090650;28;20048;-78
2021/09/30 08:58:41;;;;;;;3.50;0.73;;;12.50;94.90;;;;;;5091755;28;20161;-78
2021/09/30 09:01:11;;;;;;;1.73;0.73;;;12.60;94.60;;;;;;5090816;28;20082;-79
2021/09/30 09:03:40;;;;;;;3.15;0.80;;;12.80;94.90;;;;;;5090298;28;20079;-79
2021/09/30 09:06:10;;;;;;;3.55;0.80;;;12.90;93.80;;;;;;5090322;28;20055;-79
2021/09/30 09:08:38;;;;;;;3.30;0.60;;;13.00;92.80;;;;;;5090554;28;20047;-78
2021/09/30 09:11:07;;;;;;;3.13;0.70;;;13.00;91.70;;;;;;5090484;28;20056;-79
2021/09/30 09:13:35;;;;;;;2.17;0.75;;;13.00;92.00;;;;;;5090631;28;20047;-78
2021/09/30 09:16:04;;;;;;;3.33;0.70;;;13.10;91.70;;;;;;5090678;28;20408;-80
2021/09/30 09:18:34;;;;;;;3.15;0.77;;;13.20;91.80;;;;;;5089967;28;20044;-78
2021/09/30 09:21:08;;;;;;;4.10;1.05;;;13.20;91.00;;;;;;5090695;28;20135;-79
2021/09/30 09:23:55;;;;;;;3.58;0.60;;;13.20;90.60;;;;;;5090315;28;20052;-79
2021/09/30 09:26:32;;;;;;;3.05;0.55;;;13.30;90.70;;;;;;5090434;28;20139;-80
2021/09/30 09:29:06;;;;;;;3.83;0.70;;;13.30;90.10;;;;;;5090404;28;20075;-78
2021/09/30 09:31:37;;;;;;;1.77;0.52;;;13.20;90.30;;;;;;5089807;28;20044;-77
2021/09/30 09:34:20;;;;;;;4.60;0.60;;;13.30;90.50;;;;;;5090485;28;20188;-79
2021/09/30 09:36:50;;;;;;;2.13;0.50;;;13.30;89.50;;;;;;5090550;28;20044;-78
2021/09/30 09:39:33;;;;;;;3.63;1.38;;;13.30;89.10;;;;;;5089761;28;20040;-80
2021/09/30 09:42:07;;;;;;;2.20;0.50;;;13.30;89.50;;;;;;5090067;28;20127;-78
2021/09/30 09:44:52;;;;;;;1.27;0.43;;;13.30;88.40;;;;;;5089492;28;20055;-79
2021/09/30 09:47:25;;;;;;;2.30;0.50;;;13.40;88.40;;;;;;5089875;28;20070;-78
2021/09/30 09:50:14;;;;;;;3.80;0.55;;;13.50;87.90;;;;;;5090171;28;20091;-76
2021/09/30 09:52:48;;;;;;;3.08;0.40;;;13.60;86.90;;;;;;5090114;28;20469;-77
2021/09/30 09:55:23;;;;;;;2.83;0.52;;;13.50;82.90;;;;;;5069944;28;20091;-78
2021/09/30 09:58:04;;;;;;;3.35;0.50;;;13.60;83.10;;;;;;5069581;28;20056;-78
2021/09/30 10:00:34;;;;;;;1.77;0.50;;;13.60;83.60;;;;;;5069850;28;20086;-80
2021/09/30 10:03:27;;;;;;;3.25;0.70;;;13.70;83.90;;;;;;5070408;28;20139;-79
2021/09/30 10:05:56;;;;;;;4.28;0.57;;;13.70;84.30;;;;;;5055614;28;20053;-79
2021/09/30 10:08:24;;;;;;;1.40;0.40;;;13.80;81.50;;;;;;5078026;28;20137;-78
2021/09/30 10:10:55;;;;;;;3.40;0.60;;;13.80;80.80;;;;;;5093611;28;20075;-78
2021/09/30 10:13:24;;;;;;;3.00;0.63;;;13.90;80.80;;;;;;5094276;28;20044;-80
2021/09/30 10:15:54;;;;;;;3.20;0.60;;;13.90;81.30;;;;;;5093910;28;20104;-78
2021/09/30 10:18:23;;;;;;;2.40;0.57;;;13.90;81.50;;;;;;5095584;28;20079;-79
2021/09/30 10:20:52;;;;;;;2.05;0.50;;;14.00;77.40;;;;;;5094413;28;20462;-77
2021/09/30 10:23:24;;;;;;;3.45;0.70;;;14.00;78.60;;;;;;5093464;28;20051;-78
2021/09/30 10:25:55;;;;;;;1.70;0.40;;;14.10;80.00;;;;;;5094115;28;20048;-78
2021/09/30 10:28:24;;;;;;;1.50;0.30;;;14.20;79.30;;;;;;5093807;28;20382;-79
2021/09/30 10:30:54;;;;;;;2.17;0.40;;;14.30;79.30;;;;;;5093526;28;20526;-78
2021/09/30 10:33:40;;;;;;;1.23;0.40;;;14.30;79.70;;;;;;5093678;28;20577;-79
2021/09/30 10:36:34;;;;;;;2.00;0.40;;;14.40;77.80;;;;;;5093605;28;20562;-79
2021/09/30 10:39:26;;;;;;;2.53;0.50;;;14.40;75.90;;;;;;5093574;28;20086;-78
2021/09/30 10:41:59;;;;;;;1.73;0.40;;;14.40;74.10;;;;;;5093699;28;20056;-79
2021/09/30 10:44:34;;;;;;;2.47;0.80;;;14.40;73.40;;;;;;5093692;28;20051;-79
2021/09/30 10:47:03;;;;;;;2.63;0.60;;;14.40;72.60;;;;;;5093232;28;20083;-79
2021/09/30 10:49:44;;;;;;;2.40;0.50;;;14.40;72.70;;;;;;5093149;28;20378;-79
2021/09/30 10:52:25;;;;;;;1.90;0.50;;;14.50;72.30;;;;;;5093191;28;20505;-79
2021/09/30 10:54:56;;;;;;;1.38;0.40;;;14.40;70.70;;;;;;5093324;28;20439;-77
2021/09/30 10:57:40;;;;;;;2.17;0.50;;;14.30;71.30;;;;;;5092897;28;20055;-76
2021/09/30 11:00:10;;;;;;;2.77;0.70;;;14.30;71.60;;;;;;5093219;28;20561;-74
2021/09/30 11:03:20;;;;;;;2.70;0.60;;;14.40;70.60;;;;;;5092783;28;20062;-77
2021/09/30 11:06:15;;;;;;;1.35;0.30;;;14.30;71.00;;;;;;5092732;28;20050;-76
2021/09/30 11:08:47;;;;;;;3.30;0.68;;;14.40;71.50;;;;;;5092714;28;20052;-75
2021/09/30 11:11:17;;;;;;;2.38;0.50;;;14.50;72.30;;;;;;5093193;28;20047;-73
2021/09/30 11:13:49;;;;;;;3.10;0.50;;;14.60;73.20;;;;;;5092760;28;20489;-75
2021/09/30 11:16:18;;;;;;;2.40;0.50;;;14.70;72.50;;;;;;5092337;28;20040;-76
2021/09/30 11:18:54;;;;;;;2.75;0.60;;;14.70;68.40;;;;;;5092536;28;20055;-77
2021/09/30 11:21:47;;;;;;;1.63;0.30;;;14.70;66.50;;;;;;5092529;28;20048;-76
2021/09/30 11:24:43;;;;;;;2.33;0.40;;;14.70;66.70;;;;;;5092593;28;20554;-77
2021/09/30 11:27:16;;;;;;;1.67;0.40;;;14.70;65.80;;;;;;5074306;28;20219;-77
2021/09/30 11:29:46;;;;;;;2.28;0.50;;;14.70;66.50;;;;;;5091928;28;20109;-78
2021/09/30 11:32:24;;;;;;;1.25;0.30;;;14.70;64.90;;;;;;5092735;28;20053;-79
2021/09/30 11:34:53;;;;;;;3.72;0.60;;;14.80;64.90;;;;;;5092496;28;20052;-78
2021/09/30 11:37:26;;;;;;;2.05;0.40;;;14.70;63.40;;;;;;5092438;28;20087;-79
2021/09/30 11:39:56;;;;;;;2.50;0.32;;;14.80;63.70;;;;;;5092498;28;20040;-78
2021/09/30 11:42:26;;;;;;;1.50;0.52;;;14.80;64.00;;;;;;5092629;28;20131;-80
2021/09/30 11:45:06;;;;;;;2.90;0.40;;;14.90;65.00;;;;;;5092350;28;20075;-80
2021/09/30 11:47:33;;;;;;;1.92;0.40;;;15.00;65.50;;;;;;5091534;28;20105;-79
2021/09/30 11:50:03;;;;;;;1.58;0.35;;;15.10;65.10;;;;;;5092194;28;20139;-78
2021/09/30 11:52:31;;;;;;;2.17;0.52;;;15.20;65.40;;;;;;5091706;28;20939;-77
2021/09/30 11:55:12;;;;;;;2.97;0.50;;;15.20;64.60;;;;;;5092095;28;20055;-78
2021/09/30 11:57:39;;;;;;;3.03;0.40;;;15.30;65.00;;;;;;5091956;28;20119;-78
2021/09/30 12:00:14;;;;;;;2.47;0.50;;;15.30;65.40;;;;;;5091402;28;20101;-78
2021/09/30 12:02:58;;;;;;;1.52;0.40;;;15.50;63.80;;;;;;5091833;28;20090;-80
2021/09/30 12:05:29;;;;;;;1.88;0.40;;;15.50;61.30;;;;;;5094413;28;20131;-78
2021/09/30 12:07:58;;;;;;;2.60;0.50;;;15.60;61.30;;;;;;5092080;28;20428;-79
2021/09/30 12:10:25;;;;;;;2.83;0.50;;;15.70;60.90;;;;;;5091794;28;20476;-79
2021/09/30 12:12:53;;;;;;;1.52;0.38;;;15.70;60.80;;;;;;5091000;28;20052;-78
2021/09/30 12:15:22;;;;;;;2.58;0.43;;;15.80;56.30;;;;;;5091689;28;20520;-78
2021/09/30 12:17:49;;;;;;;2.05;0.50;;;15.80;57.30;;;;;;5091919;28;20134;-78
2021/09/30 12:20:19;;;;;;;2.38;0.50;;;15.90;57.90;;;;;;5091505;28;20052;-78
2021/09/30 12:22:48;;;;;;;1.42;0.30;;;16.10;58.40;;;;;;5091672;28;20469;-78
2021/09/30 12:25:19;;;;;;;1.83;0.40;;;16.10;52.80;;;;;;5090977;28;20099;-79
2021/09/30 12:27:49;;;;;;;2.42;0.32;;;16.10;52.60;;;;;;5091433;28;20147;-80
2021/09/30 12:30:21;;;;;;;1.38;0.47;;;16.20;53.60;;;;;;5091353;28;20654;-77
2021/09/30 12:32:50;;;;;;;1.75;0.30;;;16.30;54.50;;;;;;5091105;28;20139;-80
2021/09/30 12:35:26;;;;;;;1.55;0.30;;;16.40;54.60;;;;;;5091202;28;20052;-80
2021/09/30 12:37:57;;;;;;;2.47;0.50;;;16.50;54.00;;;;;;5091745;28;20043;-80
2021/09/30 12:40:28;;;;;;;1.70;0.30;;;16.70;53.40;;;;;;5090816;28;20091;-79
2021/09/30 12:43:03;;;;;;;1.85;0.43;;;16.80;54.30;;;;;;5091198;28;20048;-79
2021/09/30 12:45:35;;;;;;;1.52;0.38;;;17.00;53.80;;;;;;5071213;28;20148;-76
2021/09/30 12:48:07;;;;;;;1.80;0.60;;;17.00;52.40;;;;;;5070742;28;20167;-79
2021/09/30 12:50:45;;;;;;;1.33;0.40;;;17.20;53.20;;;;;;5070908;28;20048;-79
2021/09/30 12:53:15;;;;;;;2.53;0.60;;;17.40;53.60;;;;;;5069216;28;20059;-79
2021/09/30 12:55:43;;;;;;;1.58;0.40;;;17.60;53.70;;;;;;5075460;28;20093;-79
2021/09/30 12:58:30;;;;;;;2.35;0.45;;;17.80;53.20;;;;;;5091078;28;20051;-78
2021/09/30 13:01:19;;;;;;;0.75;0.38;;;18.10;53.20;;;;;;5090727;28;20052;-78
2021/09/30 13:04:07;;;;;;;1.23;0.40;;;18.20;52.20;;;;;;5090691;28;20044;-76
2021/09/30 13:06:35;;;;;;;2.20;0.50;;;18.50;52.00;;;;;;5090657;28;20131;-81
2021/09/30 13:09:03;;;;;;;2.25;0.60;;;18.50;51.80;;;;;;5089751;28;20090;-78
2021/09/30 13:11:33;;;;;;;1.75;0.63;;;18.70;52.00;;;;;;5090028;28;20130;-80
2021/09/30 13:14:33;;;;;;;1.65;0.47;;;18.80;51.50;;;;;;5090873;28;20122;-78
2021/09/30 13:17:16;;;;;;;2.58;0.70;;;19.00;50.70;;;;;;5028303;28;20331;-80
2021/09/30 13:19:49;;;;;;;2.13;0.38;;;19.30;52.00;;;;;;5083609;28;20127;-78
2021/09/30 13:22:18;;;;;;;1.88;0.40;;;19.50;52.90;;;;;;5090781;28;20109;-75
2021/09/30 13:24:47;;;;;;;1.63;0.35;;;19.80;50.90;;;;;;5090206;28;20062;-77
2021/09/30 13:27:17;;;;;;;1.83;0.50;;;20.10;50.50;;;;;;5090610;28;20044;-76
2021/09/30 13:29:46;;;;;;;2.30;0.45;;;20.30;49.30;;;;;;5090456;28;20075;-76
2021/09/30 13:32:15;;;;;;;2.78;0.50;;;20.50;48.40;;;;;;5089940;28;20048;-76
2021/09/30 13:34:43;;;;;;;3.30;0.70;;;20.50;47.50;;;;;;5090700;28;20680;-76
2021/09/30 13:37:10;;;;;;;3.90;0.50;;;20.50;46.90;;;;;;5090421;28;20071;-75
2021/09/30 13:39:37;;;;;;;2.38;0.40;;;20.70;48.00;;;;;;5090318;28;20124;-75
2021/09/30 13:42:06;;;;;;;2.10;0.70;;;20.80;47.60;;;;;;5090010;28;20469;-75
2021/09/30 13:44:33;;;;;;;1.80;0.40;;;21.10;47.20;;;;;;5089659;28;20040;-78
2021/09/30 13:47:00;;;;;;;2.05;0.47;;;21.20;62.50;;;;;;5090214;28;20052;-77
2021/09/30 13:49:29;;;;;;;3.08;0.63;;;21.40;45.20;;;;;;5090041;28;20223;-76
2021/09/30 13:51:56;;;;;;;1.95;0.50;;;21.60;44.80;;;;;;5089955;28;20048;-76
2021/09/30 13:54:23;;;;;;;1.55;0.40;;;21.90;44.60;;;;;;5089954;28;20051;-77
2021/09/30 13:56:50;;;;;;;1.35;0.40;;;22.20;45.10;;;;;;5089635;28;20408;-78
2021/09/30 13:59:17;;;;;;;2.15;0.50;;;22.80;45.50;;;;;;5089912;28;20040;-78
2021/09/30 14:01:44;;;;;;;2.97;0.50;;;23.60;44.20;;;;;;5089494;28;20147;-77
2021/09/30 14:04:11;;;;;;;2.33;0.43;;;24.80;42.00;;;;;;5090114;28;20062;-77
2021/09/30 14:06:40;;;;;;;2.17;0.50;;;26.30;41.80;;;;;;5090443;28;20044;-76
2021/09/30 14:09:07;;;;;;;2.00;0.50;;;;;;;;;;5090251;28;20146;-78
2021/09/30 14:11:34;;;;;;;1.65;0.60;;;31.40;35.00;;;;;;5089484;28;20142;-78
2021/09/30 14:14:01;;;;;;;1.27;0.40;;;31.20;35.30;;;;;;5090112;28;20127;-78
2021/09/30 14:16:28;;;;;;;3.20;0.70;;;32.50;34.40;;;;;;5090777;28;20197;-78
2021/09/30 14:18:55;;;;;;;1.67;0.40;;;33.60;33.60;;;;;;5090648;28;20134;-76
2021/09/30 14:21:23;;;;;;;2.30;0.52;;;34.40;32.80;;;;;;5090007;28;20557;-79
2021/09/30 14:23:51;;;;;;;1.63;0.40;;;34.70;31.60;;;;;;5089539;28;20585;-76
2021/09/30 14:26:18;;;;;;;1.92;0.50;;;34.80;30.10;;;;;;5091106;28;20075;-78
2021/09/30 14:28:45;;;;;;;3.42;0.50;;;34.70;30.50;;;;;;5099189;28;20086;-77
2021/09/30 14:31:13;;;;;;;1.90;0.50;;;35.10;30.50;;;;;;5090043;28;20135;-78
2021/09/30 14:33:40;;;;;;;3.10;0.47;;;35.40;30.00;;;;;;5090239;28;20049;-77
2021/09/30 14:36:07;;;;;;;1.63;0.45;;;35.80;31.50;;;;;;5089287;28;20127;-78
2021/09/30 14:38:34;;;;;;;1.95;0.40;;;36.00;30.10;;;;;;5089729;28;20560;-78
2021/09/30 14:41:03;;;;;;;1.65;0.30;;;35.80;29.50;;;;;;5089505;28;20050;-77
2021/09/30 14:43:36;;;;;;;2.08;0.40;;;35.70;29.70;;;;;;5089954;28;20676;-78
2021/09/30 14:46:05;;;;;;;1.85;0.50;;;35.80;29.70;;;;;;5089540;28;20048;-77
2021/09/30 14:48:32;;;;;;;1.98;0.60;;;35.50;29.60;;;;;;5089819;28;20059;-78
2021/09/30 14:51:01;;;;;;;3.17;0.85;;;35.40;30.20;;;;;;5089378;28;20489;-78
2021/09/30 14:53:28;;;;;;;2.17;0.60;;;35.30;30.00;;;;;;5087609;28;20081;-76
2021/09/30 14:55:56;;;;;;;2.92;0.50;;;35.30;29.30;;;;;;5091051;28;20123;-77
2021/09/30 14:58:24;;;;;;;1.23;0.30;;;35.20;29.60;;;;;;5091393;28;20139;-78
2021/09/30 15:00:51;;;;;;;2.42;0.40;;;35.20;29.30;;;;;;5092626;28;20071;-79
2021/09/30 15:03:18;;;;;;;2.33;0.75;;;35.20;29.40;;;;;;5092724;28;20078;-78
2021/09/30 15:05:45;;;;;;;2.35;0.52;;;35.50;29.40;;;;;;5103700;28;20099;-78
2021/09/30 15:08:13;;;;;;;2.83;0.60;;;35.80;29.10;;;;;;5109309;28;20079;-78
2021/09/30 15:10:40;;;;;;;2.55;0.50;;;35.90;29.00;;;;;;5093268;28;20457;-78
2021/09/30 15:13:07;;;;;;;2.75;0.60;;;35.80;29.20;;;;;;5092431;28;20078;-78
2021/09/30 15:15:36;;;;;;;2.72;0.55;;;35.90;29.20;;;;;;5092175;28;20040;-78
2021/09/30 15:18:06;;;;;;;1.38;0.40;;;36.10;29.10;;;;;;5093019;28;20044;-76
2021/09/30 15:23:22;;;;;;;2.15;0.50;;;36.60;29.30;;;;;;5066511;28;20059;-77
2021/09/30 15:25:49;;;;;;;1.60;0.45;;;36.90;29.40;;;;;;5092746;28;20040;-79
2021/09/30 15:28:18;;;;;;;2.42;0.60;;;37.10;35.30;;;;;;5091324;28;20482;-78
2021/09/30 15:30:47;;;;;;;1.58;0.50;;;37.20;34.70;;;;;;5092032;28;20122;-78
2021/09/30 15:33:15;;;;;;;1.58;0.40;;;36.80;34.80;;;;;;5090639;28;20150;-79